Time;durP1;ratioP1;P1;durP2;ratioP2;P2;SDS_P1;SDS_P2;PMS_P1;PMS_P2;Temp;Humidity;BMP_temperature;BMP_pressure;BME280_temperature;BME280_humidity;BME280_pressure;Samples;Min_cycle;Max_cycle;Signal;HPM_P1;HPM_P2
2022/07/22 00:01:15;;;;;;;6.80;4.10;;;;;;;;;;10357426;28;20140;-74
2022/07/22 00:06:16;;;;;;;8.45;3.30;;;;;;;;;;10357201;28;20034;-74
2022/07/22 00:11:16;;;;;;;5.75;3.78;;;;;;;;;;10357233;28;20129;-75
2022/07/22 00:16:16;;;;;;;10.75;3.90;;;;;;;;;;10356888;28;20416;-74
2022/07/22 00:21:16;;;;;;;12.37;4.43;;;;;;;;;;10356638;28;20121;-74
2022/07/22 00:26:17;;;;;;;5.80;3.90;;;;;;;;;;10356382;28;20026;-75
2022/07/22 00:31:17;;;;;;;4.40;3.63;;;;;;;;;;10356374;28;20033;-74
2022/07/22 00:36:18;;;;;;;7.17;3.87;;;;;;;;;;10373922;28;20125;-75
2022/07/22 00:41:18;;;;;;;6.38;3.97;;;;;;;;;;10356201;28;20121;-74
2022/07/22 00:46:18;;;;;;;5.10;3.90;;;;;;;;;;10355759;28;20550;-74
2022/07/22 00:51:19;;;;;;;4.67;3.50;;;;;;;;;;10339413;28;20128;-73
2022/07/22 00:56:20;;;;;;;5.97;3.70;;;;;;;;;;10355085;28;20033;-74
2022/07/22 01:01:20;;;;;;;4.65;3.63;;;;;;;;;;10355041;28;20076;-74
2022/07/22 01:06:20;;;;;;;5.65;3.63;;;;;;;;;;10355205;28;20104;-74
2022/07/22 01:11:21;;;;;;;8.65;4.60;;;;;;;;;;10354968;28;20041;-74
2022/07/22 01:16:21;;;;;;;8.63;4.53;;;;;;;;;;10355030;28;20033;-73
2022/07/22 01:21:22;;;;;;;5.72;4.50;;;;;;;;;;10354519;28;20092;-75
2022/07/22 01:26:22;;;;;;;6.82;4.72;;;;;;;;;;10338261;28;20034;-75
2022/07/22 01:31:22;;;;;;;11.38;4.93;;;;;;;;;;10371919;28;20095;-74
2022/07/22 01:36:22;;;;;;;9.70;4.47;;;;;;;;;;10354027;28;20034;-74
2022/07/22 01:41:23;;;;;;;7.07;4.27;;;;;;;;;;10354025;28;20511;-75
2022/07/22 01:46:23;;;;;;;8.35;4.03;;;;;;;;;;10353584;28;20033;-74
2022/07/22 01:51:24;;;;;;;8.63;4.20;;;;;;;;;;10353326;28;20084;-73
2022/07/22 01:56:24;;;;;;;8.52;4.47;;;;;;;;;;10353378;28;20036;-73
2022/07/22 02:01:24;;;;;;;7.10;4.05;;;;;;;;;;10352895;28;20104;-75
2022/07/22 02:06:24;;;;;;;7.03;4.90;;;;;;;;;;10369938;28;20050;-75
2022/07/22 02:11:25;;;;;;;8.85;4.63;;;;;;;;;;10353282;28;20494;-75
2022/07/22 02:16:25;;;;;;;7.75;4.43;;;;;;;;;;10352988;28;20121;-74
2022/07/22 02:21:25;;;;;;;7.68;4.20;;;;;;;;;;10370465;28;20045;-74
2022/07/22 02:26:25;;;;;;;8.05;5.53;;;;;;;;;;10370971;28;20042;-73
2022/07/22 02:31:26;;;;;;;11.00;5.03;;;;;;;;;;10352505;28;20152;-75
2022/07/22 02:36:26;;;;;;;7.40;4.35;;;;;;;;;;10352512;28;20040;-74
2022/07/22 02:41:26;;;;;;;7.25;4.90;;;;;;;;;;10352685;28;20128;-74
2022/07/22 02:46:29;;;;;;;6.38;4.38;;;;;;;;;;10369929;28;20042;-74
2022/07/22 02:51:30;;;;;;;9.35;4.90;;;;;;;;;;10351957;28;20033;-74
2022/07/22 02:56:30;;;;;;;10.55;4.80;;;;;;;;;;10336128;28;20133;-74
2022/07/22 03:01:30;;;;;;;8.35;5.40;;;;;;;;;;10369588;28;20466;-73
2022/07/22 03:06:30;;;;;;;9.93;5.35;;;;;;;;;;10351903;28;20045;-73
2022/07/22 03:11:31;;;;;;;7.63;4.63;;;;;;;;;;10351915;28;20117;-76
2022/07/22 03:16:31;;;;;;;10.07;4.83;;;;;;;;;;10351944;28;20041;-76
2022/07/22 03:21:32;;;;;;;11.70;5.43;;;;;;;;;;10358245;28;20037;-76
2022/07/22 03:26:32;;;;;;;9.52;5.82;;;;;;;;;;10359135;28;20125;-76
2022/07/22 03:31:32;;;;;;;25.02;6.22;;;;;;;;;;10359133;28;20030;-76
2022/07/22 03:36:32;;;;;;;14.75;6.07;;;;;;;;;;10376121;28;20034;-75
2022/07/22 03:41:33;;;;;;;10.13;4.55;;;;;;;;;;10358525;28;20153;-75
2022/07/22 03:46:33;;;;;;;11.30;5.25;;;;;;;;;;10375597;28;20104;-75
2022/07/22 03:51:33;;;;;;;16.65;5.97;;;;;;;;;;10341773;28;20396;-76
2022/07/22 03:56:33;;;;;;;13.13;5.78;;;;;;;;;;10375794;28;20508;-76
2022/07/22 04:01:34;;;;;;;10.75;5.45;;;;;;;;;;10357553;28;20591;-75
2022/07/22 04:06:34;;;;;;;9.98;5.72;;;;;;;;;;10341246;28;20037;-76
2022/07/22 04:11:34;;;;;;;9.38;5.45;;;;;;;;;;10374814;28;20088;-75
2022/07/22 04:16:35;;;;;;;10.38;4.80;;;;;;;;;;10374869;28;20037;-77
2022/07/22 04:21:35;;;;;;;8.00;5.30;;;;;;;;;;10356874;28;20116;-75
2022/07/22 04:26:36;;;;;;;13.55;5.15;;;;;;;;;;10356434;28;20034;-75
2022/07/22 04:31:36;;;;;;;12.02;4.93;;;;;;;;;;10355463;28;20595;-75
2022/07/22 04:36:36;;;;;;;19.50;6.57;;;;;;;;;;10355908;28;20053;-74
2022/07/22 04:41:37;;;;;;;18.08;5.75;;;;;;;;;;10355624;28;20030;-73
2022/07/22 04:46:37;;;;;;;9.55;5.53;;;;;;;;;;10355257;28;20026;-74
2022/07/22 04:51:37;;;;;;;10.68;5.30;;;;;;;;;;10355086;28;20033;-76
2022/07/22 04:56:37;;;;;;;9.50;5.25;;;;;;;;;;10355053;28;20068;-75
2022/07/22 05:01:38;;;;;;;7.97;5.45;;;;;;;;;;10354913;28;20041;-75
2022/07/22 05:06:38;;;;;;;13.73;6.47;;;;;;;;;;10354524;28;20041;-76
2022/07/22 05:11:38;;;;;;;14.23;6.27;;;;;;;;;;10354445;28;20049;-73
2022/07/22 05:16:39;;;;;;;10.77;5.80;;;;;;;;;;10354664;28;20022;-74
2022/07/22 05:21:40;;;;;;;11.25;5.82;;;;;;;;;;10370187;28;20136;-74
2022/07/22 05:26:40;;;;;;;20.73;7.35;;;;;;;;;;10353902;28;20133;-75
2022/07/22 05:31:40;;;;;;;12.25;6.30;;;;;;;;;;10353673;28;20504;-74
2022/07/22 05:36:40;;;;;;;16.00;6.13;;;;;;;;;;10371255;28;20037;-74
2022/07/22 05:41:41;;;;;;;11.23;6.13;;;;;;;;;;10353525;28;20040;-75
2022/07/22 05:46:41;;;;;;;10.90;5.78;;;;;;;;;;10352896;28;20029;-74
2022/07/22 05:51:41;;;;;;;10.77;5.18;;;;;;;;;;10353246;28;20022;-75
2022/07/22 05:56:42;;;;;;;17.60;5.90;;;;;;;;;;10352664;28;20113;-74
2022/07/22 06:01:42;;;;;;;10.77;5.15;;;;;;;;;;10352827;28;20288;-75
2022/07/22 06:06:43;;;;;;;21.33;7.20;;;;;;;;;;10352670;28;20417;-75
2022/07/22 06:11:43;;;;;;;11.55;5.45;;;;;;;;;;10352489;28;20057;-75
2022/07/22 06:16:44;;;;;;;14.13;5.00;;;;;;;;;;10352805;28;20084;-75
2022/07/22 06:21:44;;;;;;;18.33;6.40;;;;;;;;;;10370178;28;20045;-75
2022/07/22 06:26:44;;;;;;;22.02;6.18;;;;;;;;;;10352447;28;20045;-76
2022/07/22 06:31:44;;;;;;;9.63;3.97;;;;;;;;;;10352386;28;20490;-75
2022/07/22 06:36:45;;;;;;;14.70;4.82;;;;;;;;;;10352388;28;20424;-75
2022/07/22 06:41:45;;;;;;;11.32;4.68;;;;;;;;;;10352110;28;20041;-75
2022/07/22 06:46:45;;;;;;;14.50;4.65;;;;;;;;;;10351676;28;20037;-75
2022/07/22 06:51:45;;;;;;;9.98;4.53;;;;;;;;;;10369464;28;20518;-75
2022/07/22 06:56:46;;;;;;;10.23;4.45;;;;;;;;;;10359366;28;20530;-75
2022/07/22 07:01:46;;;;;;;14.35;4.47;;;;;;;;;;10359331;28;20052;-75
2022/07/22 07:06:46;;;;;;;12.35;4.03;;;;;;;;;;10375507;28;20049;-75
2022/07/22 07:11:46;;;;;;;16.63;5.28;;;;;;;;;;10390380;28;20110;-75
2022/07/22 07:16:47;;;;;;;13.13;4.07;;;;;;;;;;10358935;28;20030;-76
2022/07/22 07:21:47;;;;;;;10.18;3.90;;;;;;;;;;10376420;28;20049;-76
2022/07/22 07:26:47;;;;;;;9.38;3.25;;;;;;;;;;10376340;28;20034;-75
2022/07/22 07:31:48;;;;;;;12.18;3.33;;;;;;;;;;10358375;28;20022;-75
2022/07/22 07:36:48;;;;;;;11.18;3.63;;;;;;;;;;10375810;28;20026;-75
2022/07/22 07:41:48;;;;;;;6.20;3.05;;;;;;;;;;10357928;28;20113;-75
2022/07/22 07:46:49;;;;;;;10.13;3.13;;;;;;;;;;10357922;28;20034;-76
2022/07/22 07:51:49;;;;;;;13.20;3.30;;;;;;;;;;10357607;28;20028;-76
2022/07/22 07:56:49;;;;;;;7.73;2.90;;;;;;;;;;10357846;28;20034;-75
2022/07/22 08:01:49;;;;;;;11.90;2.90;;;;;;;;;;10357383;28;20049;-75
2022/07/22 08:06:50;;;;;;;10.20;2.72;;;;;;;;;;10373202;28;20172;-73
2022/07/22 08:11:50;;;;;;;8.77;3.08;;;;;;;;;;10374240;28;20041;-74
2022/07/22 08:16:51;;;;;;;5.18;2.05;;;;;;;;;;10356470;28;20576;-75
2022/07/22 08:21:51;;;;;;;5.13;2.27;;;;;;;;;;10356501;28;20037;-75
2022/07/22 08:26:51;;;;;;;7.30;2.47;;;;;;;;;;10356192;28;20037;-75
2022/07/22 08:31:51;;;;;;;4.63;2.42;;;;;;;;;;10356240;28;20032;-75
2022/07/22 08:36:51;;;;;;;4.80;2.30;;;;;;;;;;10355952;28;20029;-75
2022/07/22 08:41:53;;;;;;;4.97;1.88;;;;;;;;;;10355641;28;20033;-74
2022/07/22 08:46:53;;;;;;;10.77;2.53;;;;;;;;;;10339086;28;20096;-73
2022/07/22 08:51:54;;;;;;;3.17;1.80;;;;;;;;;;10355180;28;20488;-74
2022/07/22 08:56:54;;;;;;;6.35;2.20;;;;;;;;;;10354999;28;20560;-75
2022/07/22 09:02:01;;;;;;;8.90;2.40;;;;;;;;;;10338757;28;20492;-74
2022/07/22 09:07:01;;;;;;;6.97;2.40;;;;;;;;;;10354410;28;20065;-76
2022/07/22 09:12:08;;;;;;;6.50;2.53;;;;;;;;;;10372316;28;20083;-74
2022/07/22 09:17:21;;;;;;;8.52;2.53;;;;;;;;;;10354327;28;20034;-75
2022/07/22 09:22:35;;;;;;;5.40;1.90;;;;;;;;;;10353952;28;20044;-74
2022/07/22 09:27:35;;;;;;;4.25;1.77;;;;;;;;;;10354062;28;20034;-75
2022/07/22 09:32:42;;;;;;;7.80;2.53;;;;;;;;;;10353867;28;20364;-74
2022/07/22 09:37:47;;;;;;;6.10;2.15;;;;;;;;;;10370976;28;20408;-74
2022/07/22 09:42:49;;;;;;;5.18;1.90;;;;;;;;;;10352969;28;20033;-74
2022/07/22 09:47:49;;;;;;;8.10;2.10;;;;;;;;;;10370751;28;20404;-75
2022/07/22 09:52:51;;;;;;;4.75;1.98;;;;;;;;;;10370768;28;20036;-75
2022/07/22 09:57:51;;;;;;;4.20;1.70;;;;;;;;;;10353488;28;20026;-75
2022/07/22 10:02:53;;;;;;;6.18;1.70;;;;;;;;;;10352773;28;20046;-76
2022/07/22 10:07:54;;;;;;;4.72;1.58;;;;;;;;;;10336863;28;20064;-76
2022/07/22 10:12:55;;;;;;;4.40;1.85;;;;;;;;;;10352552;28;20514;-75
2022/07/22 10:17:58;;;;;;;5.05;1.90;;;;;;;;;;10352830;28;20033;-75
2022/07/22 10:22:59;;;;;;;3.60;1.65;;;;;;;;;;10352756;28;20069;-75
2022/07/22 10:28:02;;;;;;;7.10;1.92;;;;;;;;;;10354374;28;20038;-75
2022/07/22 10:33:09;;;;;;;3.83;1.80;;;;;;;;;;10360656;28;20180;-75
2022/07/22 10:38:10;;;;;;;7.10;2.03;;;;;;;;;;10360519;28;20080;-75
2022/07/22 10:43:11;;;;;;;3.30;2.17;;;;;;;;;;10360384;28;20519;-74
2022/07/22 10:48:32;;;;;;;3.40;2.13;;;;;;;;;;10360296;28;20561;-75
2022/07/22 10:53:39;;;;;;;6.80;1.80;;;;;;;;;;10349448;28;20029;-76
2022/07/22 10:58:44;;;;;;;4.82;2.20;;;;;;;;;;10377631;28;20029;-76
2022/07/22 11:03:45;;;;;;;6.60;2.00;;;;;;;;;;10377247;28;20054;-74
2022/07/22 11:08:46;;;;;;;7.88;1.83;;;;;;;;;;10343216;28;20172;-74
2022/07/22 11:13:46;;;;;;;5.40;2.40;;;;;;;;;;10358774;28;20038;-74
2022/07/22 11:18:47;;;;;;;9.23;2.70;;;;;;;;;;10376469;28;20034;-74
2022/07/22 11:23:49;;;;;;;9.30;3.28;;;;;;;;;;10358656;28;20036;-75
2022/07/22 11:28:49;;;;;;;5.15;2.88;;;;;;;;;;10358570;28;20042;-75
2022/07/22 11:33:49;;;;;;;14.35;3.35;;;;;;;;;;10358228;28;20034;-75
2022/07/22 11:38:50;;;;;;;7.57;3.07;;;;;;;;;;10358032;28;20025;-75
2022/07/22 11:43:50;;;;;;;6.07;3.30;;;;;;;;;;10375920;28;20096;-75
2022/07/22 11:48:51;;;;;;;9.23;2.67;;;;;;;;;;10357877;28;20284;-73
2022/07/22 11:53:51;;;;;;;10.63;3.30;;;;;;;;;;10357721;28;20116;-73
2022/07/22 11:58:55;;;;;;;7.18;2.95;;;;;;;;;;10358199;28;20125;-74
2022/07/22 12:03:58;;;;;;;6.93;3.17;;;;;;;;;;10374838;28;20042;-74
2022/07/22 12:09:04;;;;;;;6.75;2.50;;;;;;;;;;10357157;28;20112;-74
2022/07/22 12:14:06;;;;;;;10.17;3.13;;;;;;;;;;10357052;28;20518;-74
2022/07/22 12:19:07;;;;;;;5.00;3.28;;;;;;;;;;10356876;28;20088;-74
2022/07/22 12:24:09;;;;;;;5.72;3.70;;;;;;;;;;10356506;28;20057;-76
2022/07/22 12:29:13;;;;;;;5.22;2.80;;;;;;;;;;10356465;28;20030;-76
2022/07/22 12:34:13;;;;;;;5.20;3.00;;;;;;;;;;10373705;28;20033;-75
2022/07/22 12:39:17;;;;;;;9.40;2.95;;;;;;;;;;10355933;28;20427;-74
2022/07/22 12:44:18;;;;;;;8.35;3.22;;;;;;;;;;10355574;28;20033;-73
2022/07/22 12:49:19;;;;;;;5.78;2.70;;;;;;;;;;10355483;28;20057;-75
2022/07/22 12:54:20;;;;;;;8.20;2.80;;;;;;;;;;10354684;28;20026;-73
2022/07/22 12:59:20;;;;;;;9.10;3.13;;;;;;;;;;10355041;28;20033;-73
2022/07/22 13:04:21;;;;;;;6.55;3.10;;;;;;;;;;10355517;28;20095;-73
2022/07/22 13:09:21;;;;;;;7.53;3.53;;;;;;;;;;10354995;28;20038;-76
2022/07/22 13:14:21;;;;;;;4.93;3.03;;;;;;;;;;10354502;28;20480;-73
2022/07/22 13:19:21;;;;;;;6.78;3.35;;;;;;;;;;10354470;28;20510;-74
2022/07/22 13:24:22;;;;;;;6.95;2.97;;;;;;;;;;10354494;28;20036;-75
2022/07/22 13:29:22;;;;;;;4.70;2.70;;;;;;;;;;10354071;28;20455;-75
2022/07/22 13:34:22;;;;;;;6.18;2.90;;;;;;;;;;10353702;28;20492;-75
2022/07/22 13:39:23;;;;;;;10.25;3.45;;;;;;;;;;10371702;28;20407;-75
2022/07/22 13:44:23;;;;;;;7.40;3.07;;;;;;;;;;10371253;28;20060;-75
2022/07/22 13:49:23;;;;;;;8.52;2.58;;;;;;;;;;10353919;28;20818;-74
2022/07/22 13:54:24;;;;;;;6.83;2.57;;;;;;;;;;10353395;28;20097;-74
2022/07/22 13:59:24;;;;;;;6.38;3.50;;;;;;;;;;10353082;28;20525;-74
2022/07/22 14:04:24;;;;;;;8.03;3.67;;;;;;;;;;10352029;28;20045;-74
2022/07/22 14:09:25;;;;;;;6.60;2.87;;;;;;;;;;10352769;28;20065;-74
2022/07/22 14:14:25;;;;;;;5.38;2.53;;;;;;;;;;10352692;28;20296;-74
2022/07/22 14:19:25;;;;;;;7.87;2.50;;;;;;;;;;10352727;28;20042;-74
2022/07/22 14:24:26;;;;;;;8.63;2.50;;;;;;;;;;10370179;28;20452;-75
2022/07/22 14:29:26;;;;;;;4.47;2.43;;;;;;;;;;10352337;28;20488;-75
2022/07/22 14:34:26;;;;;;;6.65;2.75;;;;;;;;;;10351975;28;20069;-74
2022/07/22 14:39:27;;;;;;;4.97;3.00;;;;;;;;;;10352344;28;20026;-75
2022/07/22 14:44:27;;;;;;;9.05;2.25;;;;;;;;;;10351989;28;20041;-75
2022/07/22 14:49:27;;;;;;;4.22;2.40;;;;;;;;;;10369726;28;20424;-74
2022/07/22 14:54:27;;;;;;;8.45;3.05;;;;;;;;;;10351992;28;20060;-75
2022/07/22 14:59:28;;;;;;;10.40;2.40;;;;;;;;;;10351854;28;20034;-75
2022/07/22 15:04:29;;;;;;;4.80;2.50;;;;;;;;;;10369380;28;20038;-74
2022/07/22 15:09:30;;;;;;;3.15;2.50;;;;;;;;;;10351829;28;20419;-75
2022/07/22 15:14:30;;;;;;;10.03;3.07;;;;;;;;;;10374302;28;20074;-75
2022/07/22 15:19:30;;;;;;;5.20;2.78;;;;;;;;;;10359098;28;20092;-74
2022/07/22 15:24:30;;;;;;;6.57;2.50;;;;;;;;;;10342532;28;20504;-75
2022/07/22 15:29:30;;;;;;;6.50;2.60;;;;;;;;;;10359183;28;20408;-74
2022/07/22 15:34:32;;;;;;;6.50;2.47;;;;;;;;;;10358535;28;20512;-74
2022/07/22 15:39:33;;;;;;;5.55;2.90;;;;;;;;;;10358077;28;20053;-74
2022/07/22 15:44:33;;;;;;;10.35;2.70;;;;;;;;;;10357988;28;20053;-74
2022/07/22 15:49:34;;;;;;;5.25;2.45;;;;;;;;;;10357517;28;20109;-74
2022/07/22 15:54:36;;;;;;;12.70;2.83;;;;;;;;;;10357656;28;20475;-74
2022/07/22 15:59:40;;;;;;;4.57;2.83;;;;;;;;;;10358261;28;20042;-74
2022/07/22 16:04:41;;;;;;;8.48;2.60;;;;;;;;;;10357594;28;20447;-74
2022/07/22 16:09:41;;;;;;;5.53;3.05;;;;;;;;;;10357151;28;20034;-74
2022/07/22 16:14:41;;;;;;;14.00;3.22;;;;;;;;;;10356986;28;20037;-74
2022/07/22 16:19:41;;;;;;;5.82;2.40;;;;;;;;;;10356665;28;20579;-75
2022/07/22 16:24:42;;;;;;;9.02;2.70;;;;;;;;;;10355824;28;20030;-74
2022/07/22 16:29:42;;;;;;;3.33;2.38;;;;;;;;;;10355660;28;20037;-74
2022/07/22 16:34:42;;;;;;;7.05;2.70;;;;;;;;;;10356115;28;20027;-74
2022/07/22 16:39:42;;;;;;;6.50;2.67;;;;;;;;;;10355902;28;20488;-74
2022/07/22 16:44:43;;;;;;;11.45;3.10;;;;;;;;;;10355495;28;20045;-75
2022/07/22 16:49:43;;;;;;;6.83;2.93;;;;;;;;;;10355526;28;20030;-74
2022/07/22 16:54:43;;;;;;;6.00;2.92;;;;;;;;;;10355579;28;20128;-75
2022/07/22 16:59:44;;;;;;;8.60;2.80;;;;;;;;;;10373071;28;20056;-75
2022/07/22 17:04:44;;;;;;;9.30;3.28;;;;;;;;;;10355247;28;20061;-76
2022/07/22 17:09:44;;;;;;;5.28;3.25;;;;;;;;;;10338779;28;20500;-75
2022/07/22 17:14:44;;;;;;;6.45;3.17;;;;;;;;;;10371924;28;20030;-75
2022/07/22 17:19:44;;;;;;;6.43;3.00;;;;;;;;;;10371984;28;20033;-75
2022/07/22 17:24:45;;;;;;;5.43;3.33;;;;;;;;;;10354356;28;20125;-75
2022/07/22 17:29:45;;;;;;;9.77;3.67;;;;;;;;;;10337952;28;20026;-75
2022/07/22 17:34:47;;;;;;;10.00;3.43;;;;;;;;;;10354057;28;20096;-75
2022/07/22 17:39:47;;;;;;;8.27;3.90;;;;;;;;;;10353834;28;20026;-75
2022/07/22 17:44:47;;;;;;;14.13;6.43;;;;;;;;;;10353140;28;20033;-75
2022/07/22 17:49:47;;;;;;;4.80;2.85;;;;;;;;;;10370908;28;20034;-75
2022/07/22 17:54:48;;;;;;;9.50;3.75;;;;;;;;;;10353022;28;20116;-74
2022/07/22 17:59:48;;;;;;;8.87;3.43;;;;;;;;;;10370681;28;20090;-74
2022/07/22 18:04:48;;;;;;;5.35;3.15;;;;;;;;;;10353169;28;20029;-74
2022/07/22 18:09:49;;;;;;;10.35;4.38;;;;;;;;;;10353084;28;20466;-75
2022/07/22 18:14:49;;;;;;;18.93;5.13;;;;;;;;;;10352767;28;20038;-75
2022/07/22 18:19:49;;;;;;;10.73;4.15;;;;;;;;;;10352705;28;20084;-75
2022/07/22 18:24:49;;;;;;;10.98;4.50;;;;;;;;;;10352369;28;20029;-76
2022/07/22 18:29:50;;;;;;;7.77;4.10;;;;;;;;;;10352501;28;20034;-75
2022/07/22 18:34:50;;;;;;;8.30;4.55;;;;;;;;;;10352433;28;20507;-76
2022/07/22 18:39:50;;;;;;;14.35;4.75;;;;;;;;;;10352099;28;20025;-75
2022/07/22 18:44:51;;;;;;;13.90;5.05;;;;;;;;;;10351931;28;20034;-75
2022/07/22 18:49:51;;;;;;;13.30;4.63;;;;;;;;;;10355145;28;20030;-74
2022/07/22 18:54:51;;;;;;;11.90;4.82;;;;;;;;;;10360038;28;20129;-75
2022/07/22 18:59:51;;;;;;;9.02;5.18;;;;;;;;;;10360142;28;20423;-75
2022/07/22 19:04:52;;;;;;;7.18;4.30;;;;;;;;;;10360075;28;20057;-75
2022/07/22 19:09:52;;;;;;;11.13;4.80;;;;;;;;;;10377108;28;20052;-76
2022/07/22 19:14:52;;;;;;;11.87;6.50;;;;;;;;;;10359225;28;20127;-75
2022/07/22 19:19:53;;;;;;;10.05;4.85;;;;;;;;;;10359168;28;20026;-74
2022/07/22 19:24:53;;;;;;;9.43;3.93;;;;;;;;;;10358857;28;20602;-74
2022/07/22 19:29:53;;;;;;;7.35;4.40;;;;;;;;;;10358663;28;20499;-74
2022/07/22 19:34:53;;;;;;;8.40;5.57;;;;;;;;;;10358481;28;20030;-75
2022/07/22 19:39:54;;;;;;;7.53;4.13;;;;;;;;;;10376831;28;20028;-75
2022/07/22 19:44:55;;;;;;;7.13;4.10;;;;;;;;;;10358291;28;20488;-75
2022/07/22 19:49:55;;;;;;;13.67;4.57;;;;;;;;;;10357821;28;20116;-75
2022/07/22 19:54:55;;;;;;;7.50;4.05;;;;;;;;;;10375393;28;20145;-74
2022/07/22 19:59:56;;;;;;;6.43;3.63;;;;;;;;;;10375042;28;20045;-75
2022/07/22 20:04:56;;;;;;;8.45;3.97;;;;;;;;;;10357500;28;20500;-74
2022/07/22 20:09:56;;;;;;;10.53;4.87;;;;;;;;;;10357680;28;20080;-74
2022/07/22 20:14:57;;;;;;;7.47;4.47;;;;;;;;;;10357234;28;20045;-74
2022/07/22 20:19:57;;;;;;;11.35;4.78;;;;;;;;;;10356960;28;20033;-74
2022/07/22 20:24:57;;;;;;;9.60;5.00;;;;;;;;;;10356748;28;20112;-74
2022/07/22 20:29:57;;;;;;;6.25;4.30;;;;;;;;;;10374180;28;20471;-74
2022/07/22 20:34:58;;;;;;;9.88;4.63;;;;;;;;;;10373970;28;20022;-74
2022/07/22 20:39:58;;;;;;;10.60;4.60;;;;;;;;;;10356305;28;20072;-74
2022/07/22 20:44:58;;;;;;;9.82;4.88;;;;;;;;;;10356010;28;20034;-74
2022/07/22 20:49:58;;;;;;;10.55;4.97;;;;;;;;;;10356034;28;20033;-75
2022/07/22 20:54:59;;;;;;;8.70;4.33;;;;;;;;;;10355577;28;20037;-74
2022/07/22 20:59:59;;;;;;;10.48;4.90;;;;;;;;;;10355526;28;20179;-74
2022/07/22 21:04:59;;;;;;;9.40;4.13;;;;;;;;;;10355388;28;20041;-75
2022/07/22 21:10:00;;;;;;;6.77;4.90;;;;;;;;;;10355297;28;20327;-75
2022/07/22 21:15:02;;;;;;;9.40;4.40;;;;;;;;;;10354498;28;20387;-75
2022/07/22 21:20:02;;;;;;;9.68;4.50;;;;;;;;;;10354771;28;20030;-74
2022/07/22 21:25:03;;;;;;;11.32;4.88;;;;;;;;;;10354769;28;20026;-76
2022/07/22 21:30:06;;;;;;;5.75;4.15;;;;;;;;;;10354724;28;20065;-75
2022/07/22 21:35:07;;;;;;;10.75;4.70;;;;;;;;;;10354230;28;20092;-74
2022/07/22 21:40:07;;;;;;;9.20;4.20;;;;;;;;;;10354118;28;20389;-75
2022/07/22 21:45:08;;;;;;;10.52;5.10;;;;;;;;;;10371555;28;20037;-75
2022/07/22 21:50:08;;;;;;;10.80;4.90;;;;;;;;;;10353749;28;20065;-75
2022/07/22 21:55:08;;;;;;;8.17;4.43;;;;;;;;;;10353600;28;20750;-75
2022/07/22 22:00:12;;;;;;;8.40;4.18;;;;;;;;;;10353523;28;20523;-74
2022/07/22 22:05:12;;;;;;;9.65;4.78;;;;;;;;;;10370987;28;20030;-74
2022/07/22 22:10:12;;;;;;;10.82;4.70;;;;;;;;;;10353227;28;20483;-75
2022/07/22 22:15:12;;;;;;;15.23;4.57;;;;;;;;;;10353057;28;20034;-74
2022/07/22 22:20:13;;;;;;;12.88;5.25;;;;;;;;;;10353080;28;20547;-74
2022/07/22 22:25:13;;;;;;;9.98;4.72;;;;;;;;;;10352082;28;20484;-74
2022/07/22 22:30:14;;;;;;;10.95;5.35;;;;;;;;;;10370440;28;20030;-76
2022/07/22 22:35:14;;;;;;;10.13;4.80;;;;;;;;;;10352442;28;20030;-74
2022/07/22 22:40:14;;;;;;;13.63;6.93;;;;;;;;;;10352540;28;20473;-74
2022/07/22 22:45:14;;;;;;;6.93;4.90;;;;;;;;;;10370025;28;20034;-74
2022/07/22 22:50:15;;;;;;;12.73;5.65;;;;;;;;;;10352212;28;20029;-74
2022/07/22 22:55:15;;;;;;;9.15;4.40;;;;;;;;;;10352130;28;20065;-74
2022/07/22 23:00:15;;;;;;;7.70;4.95;;;;;;;;;;10335717;28;20041;-74
2022/07/22 23:05:16;;;;;;;9.82;5.03;;;;;;;;;;10352254;28;20500;-74
2022/07/22 23:10:16;;;;;;;8.60;5.25;;;;;;;;;;10352020;28;20049;-74
2022/07/22 23:15:16;;;;;;;8.67;5.43;;;;;;;;;;10369482;28;20064;-74
2022/07/22 23:20:17;;;;;;;10.70;4.85;;;;;;;;;;10351972;28;20030;-74
2022/07/22 23:25:17;;;;;;;10.68;4.65;;;;;;;;;;10351888;28;20080;-75
2022/07/22 23:30:17;;;;;;;11.13;4.88;;;;;;;;;;10351704;28;20042;-74
2022/07/22 23:35:18;;;;;;;10.30;4.53;;;;;;;;;;10353502;28;20418;-74
2022/07/22 23:40:18;;;;;;;10.97;5.37;;;;;;;;;;10358736;28;20029;-74
2022/07/22 23:45:18;;;;;;;13.90;6.50;;;;;;;;;;10358531;28;20060;-74
2022/07/22 23:50:19;;;;;;;9.80;4.90;;;;;;;;;;10358323;28;20034;-73
2022/07/22 23:55:19;;;;;;;8.30;4.77;;;;;;;;;;10358317;28;20034;-73
